Time;durP1;ratioP1;P1;durP2;ratioP2;P2;SDS_P1;SDS_P2;PMS_P1;PMS_P2;Temp;Humidity;BMP_temperature;BMP_pressure;BME280_temperature;BME280_humidity;BME280_pressure;Samples;Min_cycle;Max_cycle;Signal;HPM_P1;HPM_P2
2023/07/19 00:01:59;;;;;;;1.42;0.80;;;28.40;94.70;;;;;;5073748;28;20204;-81
2023/07/19 00:04:30;;;;;;;1.20;0.80;;;28.40;94.70;;;;;;5074934;28;20207;-81
2023/07/19 00:07:01;;;;;;;1.35;0.80;;;28.40;94.80;;;;;;5075674;28;20286;-81
2023/07/19 00:09:33;;;;;;;1.07;0.80;;;28.20;95.90;;;;;;5081577;28;20212;-81
2023/07/19 00:12:04;;;;;;;2.95;0.80;;;28.20;95.80;;;;;;5080507;28;20232;-80
2023/07/19 00:14:35;;;;;;;2.43;0.90;;;28.40;95.40;;;;;;5079387;28;20203;-81
2023/07/19 00:17:06;;;;;;;2.47;0.90;;;28.40;95.90;;;;;;5075381;28;20203;-82
2023/07/19 00:19:38;;;;;;;1.23;0.80;;;28.50;96.20;;;;;;5075267;28;20286;-82
2023/07/19 00:22:09;;;;;;;2.40;1.00;;;28.70;95.70;;;;;;5073197;28;20687;-81
2023/07/19 00:24:42;;;;;;;1.73;0.80;;;28.50;94.80;;;;;;5074375;28;20683;-81
2023/07/19 00:27:12;;;;;;;2.50;0.90;;;28.30;95.60;;;;;;5073754;28;20204;-82
2023/07/19 00:29:43;;;;;;;1.33;0.80;;;28.30;94.40;;;;;;5073783;28;20211;-81
2023/07/19 00:32:15;;;;;;;1.87;0.97;;;28.20;96.00;;;;;;5072940;28;20235;-81
2023/07/19 00:34:46;;;;;;;1.33;0.80;;;28.20;95.60;;;;;;5073587;28;20218;-80
2023/07/19 00:37:17;;;;;;;2.90;1.10;;;28.20;95.80;;;;;;5073814;28;20575;-81
2023/07/19 00:39:50;;;;;;;1.50;0.90;;;28.20;95.10;;;;;;5073675;28;20215;-82
2023/07/19 00:42:21;;;;;;;1.40;0.70;;;28.20;95.50;;;;;;5072441;28;20286;-82
2023/07/19 00:44:52;;;;;;;0.87;0.60;;;28.40;96.50;;;;;;5073938;28;20203;-81
2023/07/19 00:47:22;;;;;;;0.90;0.80;;;28.20;95.80;;;;;;5073206;28;20657;-81
2023/07/19 00:49:57;;;;;;;0.80;0.80;;;28.10;97.00;;;;;;5073255;28;20641;-81
2023/07/19 00:52:28;;;;;;;2.20;0.90;;;28.10;96.80;;;;;;5072133;28;20280;-81
2023/07/19 00:55:01;;;;;;;2.13;0.73;;;28.20;95.90;;;;;;5073201;28;20550;-82
2023/07/19 00:57:32;;;;;;;1.15;0.70;;;28.10;94.80;;;;;;5073131;28;20203;-81
2023/07/19 01:00:04;;;;;;;2.27;0.80;;;28.10;95.80;;;;;;5073459;28;20286;-82
2023/07/19 01:02:35;;;;;;;0.80;0.70;;;28.00;94.30;;;;;;5071967;28;20286;-82
2023/07/19 01:05:07;;;;;;;1.07;0.67;;;28.40;94.40;;;;;;5072966;28;20673;-81
2023/07/19 01:07:38;;;;;;;2.10;0.80;;;28.80;94.80;;;;;;5073000;28;20261;-81
2023/07/19 01:10:12;;;;;;;2.03;0.80;;;29.20;94.60;;;;;;5072856;28;20207;-80
2023/07/19 01:12:43;;;;;;;2.83;1.23;;;29.40;93.50;;;;;;5071730;28;20231;-81
2023/07/19 01:15:14;;;;;;;1.00;0.80;;;29.80;93.60;;;;;;5072864;28;20556;-81
2023/07/19 01:17:45;;;;;;;3.43;0.97;;;30.10;92.80;;;;;;5072920;28;20208;-80
2023/07/19 01:20:16;;;;;;;2.10;0.90;;;30.40;92.30;;;;;;5072802;28;20233;-81
2023/07/19 01:22:48;;;;;;;2.70;0.77;;;30.50;92.40;;;;;;5071547;28;20602;-81
2023/07/19 01:25:19;;;;;;;1.08;0.80;;;30.50;91.80;;;;;;5071967;28;20583;-81
2023/07/19 01:27:50;;;;;;;1.63;0.70;;;30.60;91.30;;;;;;5072803;28;20687;-81
2023/07/19 01:30:21;;;;;;;2.05;0.70;;;30.80;91.00;;;;;;5072736;28;20345;-81
2023/07/19 01:32:54;;;;;;;1.25;0.70;;;31.00;89.50;;;;;;5071572;28;20268;-81
2023/07/19 01:35:25;;;;;;;1.17;0.63;;;30.90;90.00;;;;;;5073356;28;20264;-80
2023/07/19 01:37:58;;;;;;;3.40;0.80;;;30.90;89.30;;;;;;5073881;28;20582;-80
2023/07/19 01:40:28;;;;;;;2.42;0.90;;;30.70;90.60;;;;;;5073025;28;20287;-81
2023/07/19 01:42:59;;;;;;;1.92;0.93;;;30.70;90.50;;;;;;5071405;28;20213;-80
2023/07/19 01:45:30;;;;;;;1.20;0.90;;;30.70;90.50;;;;;;5072211;28;20203;-81
2023/07/19 01:48:01;;;;;;;1.63;0.80;;;30.60;90.70;;;;;;5072042;28;20281;-80
2023/07/19 01:50:32;;;;;;;1.35;0.80;;;30.40;90.00;;;;;;5072157;28;20257;-81
2023/07/19 01:53:05;;;;;;;2.22;0.70;;;30.20;90.60;;;;;;5071300;28;20321;-81
2023/07/19 01:55:36;;;;;;;1.88;0.50;;;29.80;90.00;;;;;;5072761;28;20211;-80
2023/07/19 01:58:06;;;;;;;2.28;0.80;;;29.00;90.00;;;;;;5072122;28;20204;-81
2023/07/19 02:00:38;;;;;;;1.83;0.60;;;28.80;91.20;;;;;;5072208;28;20297;-81
2023/07/19 02:03:09;;;;;;;3.80;0.70;;;29.00;90.80;;;;;;5071088;28;20254;-81
2023/07/19 02:05:41;;;;;;;0.60;0.60;;;29.20;90.50;;;;;;5071881;28;20203;-81
2023/07/19 02:08:13;;;;;;;4.30;0.80;;;29.40;90.90;;;;;;5072002;28;20239;-82
2023/07/19 02:10:44;;;;;;;1.25;0.73;;;29.10;90.90;;;;;;5072281;28;20290;-80
2023/07/19 02:13:15;;;;;;;1.27;0.80;;;29.30;90.50;;;;;;5071124;28;20227;-81
2023/07/19 02:15:47;;;;;;;1.65;0.80;;;28.80;91.20;;;;;;5072021;28;20282;-81
2023/07/19 02:18:18;;;;;;;1.60;0.77;;;28.30;92.00;;;;;;5072025;28;20203;-81
2023/07/19 02:20:53;;;;;;;2.03;0.90;;;27.70;92.80;;;;;;5072235;28;20211;-82
2023/07/19 02:23:26;;;;;;;1.10;0.90;;;27.30;94.20;;;;;;5075267;28;20283;-81
2023/07/19 02:25:57;;;;;;;0.93;0.80;;;26.90;94.50;;;;;;5077091;28;20273;-81
2023/07/19 02:28:28;;;;;;;2.90;0.77;;;26.50;94.60;;;;;;5076210;28;20200;-82
2023/07/19 02:30:58;;;;;;;1.23;0.70;;;26.20;94.90;;;;;;5072017;28;20208;-80
2023/07/19 02:33:29;;;;;;;2.83;0.87;;;25.90;95.70;;;;;;5072358;28;20244;-81
2023/07/19 02:36:00;;;;;;;1.13;0.60;;;25.60;96.00;;;;;;5072295;28;20207;-79
2023/07/19 02:38:33;;;;;;;1.17;0.53;;;25.50;96.50;;;;;;5076197;28;20207;-80
2023/07/19 02:41:04;;;;;;;1.77;0.70;;;25.40;96.80;;;;;;5074807;28;20302;-81
2023/07/19 02:43:34;;;;;;;1.40;0.83;;;25.30;97.00;;;;;;5075949;28;20230;-82
2023/07/19 02:46:05;;;;;;;1.77;0.87;;;25.10;98.00;;;;;;5075360;28;20203;-81
2023/07/19 02:48:36;;;;;;;1.03;0.80;;;25.00;97.70;;;;;;5076048;28;20211;-80
2023/07/19 02:51:07;;;;;;;1.30;0.80;;;24.80;97.90;;;;;;5076017;28;20199;-81
2023/07/19 02:53:39;;;;;;;1.37;0.77;;;24.70;99.30;;;;;;5084044;28;20227;-81
2023/07/19 02:56:10;;;;;;;2.03;0.73;;;24.60;98.60;;;;;;5079530;28;20210;-80
2023/07/19 02:58:41;;;;;;;2.10;0.80;;;24.50;99.10;;;;;;5076479;28;20234;-80
2023/07/19 03:01:14;;;;;;;1.53;1.00;;;24.40;99.90;;;;;;5080022;28;20222;-80
2023/07/19 03:03:45;;;;;;;3.37;1.40;;;24.30;99.60;;;;;;5081241;28;20650;-80
2023/07/19 03:06:16;;;;;;;1.27;0.80;;;24.20;99.90;;;;;;5079079;28;20290;-81
2023/07/19 03:08:49;;;;;;;0.90;0.70;;;24.10;99.90;;;;;;5075548;28;20213;-80
2023/07/19 03:11:19;;;;;;;1.67;0.93;;;24.00;99.90;;;;;;5076007;28;20199;-81
2023/07/19 03:13:51;;;;;;;1.07;0.60;;;24.00;99.90;;;;;;5077188;28;20696;-80
2023/07/19 03:16:21;;;;;;;3.90;1.10;;;23.90;99.90;;;;;;5078978;28;20210;-82
2023/07/19 03:18:52;;;;;;;1.77;0.87;;;23.80;99.90;;;;;;5078621;28;20662;-80
2023/07/19 03:21:23;;;;;;;1.93;0.90;;;23.70;99.90;;;;;;5077957;28;20204;-82
2023/07/19 03:23:56;;;;;;;1.07;0.70;;;23.60;99.90;;;;;;5078118;28;20215;-81
2023/07/19 03:26:26;;;;;;;2.00;0.90;;;23.50;99.90;;;;;;5079211;28;20200;-80
2023/07/19 03:28:57;;;;;;;4.50;0.90;;;23.40;99.90;;;;;;5077232;28;20196;-80
2023/07/19 03:31:29;;;;;;;1.57;1.00;;;23.30;99.90;;;;;;5076442;28;20220;-80
2023/07/19 03:34:00;;;;;;;1.40;1.20;;;23.20;99.90;;;;;;5076291;28;20705;-80
2023/07/19 03:36:31;;;;;;;1.87;1.00;;;23.10;99.90;;;;;;5077904;28;20286;-81
2023/07/19 03:39:04;;;;;;;0.97;0.87;;;23.00;99.90;;;;;;5078117;28;20203;-80
2023/07/19 03:41:35;;;;;;;2.57;0.80;;;22.90;99.90;;;;;;5076123;28;20242;-82
2023/07/19 03:44:06;;;;;;;1.13;0.73;;;22.80;99.90;;;;;;5078633;28;20235;-80
2023/07/19 03:46:37;;;;;;;2.47;0.87;;;22.80;99.90;;;;;;5078302;28;20204;-80
2023/07/19 03:49:08;;;;;;;1.40;0.73;;;22.60;99.90;;;;;;5088606;28;20616;-81
2023/07/19 03:51:39;;;;;;;0.87;0.70;;;22.50;99.90;;;;;;5083547;28;20196;-81
2023/07/19 03:54:11;;;;;;;1.73;0.93;;;22.40;99.90;;;;;;5086256;28;20284;-81
2023/07/19 03:56:42;;;;;;;2.27;0.83;;;22.30;99.90;;;;;;5094230;28;20203;-80
2023/07/19 03:59:13;;;;;;;1.30;0.83;;;22.20;99.90;;;;;;5087617;28;20669;-80
2023/07/19 04:01:44;;;;;;;1.40;0.90;;;22.10;99.90;;;;;;5086424;28;20244;-80
2023/07/19 04:04:15;;;;;;;3.30;0.80;;;22.00;99.90;;;;;;5090841;28;20230;-81
2023/07/19 04:06:46;;;;;;;2.40;1.00;;;21.90;99.90;;;;;;5089416;28;20633;-79
2023/07/19 04:09:19;;;;;;;2.13;1.13;;;21.80;99.90;;;;;;5087516;28;20215;-79
2023/07/19 04:11:49;;;;;;;2.93;0.90;;;21.70;99.90;;;;;;5072633;28;20207;-80
2023/07/19 04:14:20;;;;;;;2.10;0.90;;;21.60;99.90;;;;;;5090222;28;20226;-80
2023/07/19 04:16:51;;;;;;;1.63;0.77;;;21.50;99.90;;;;;;5089016;28;20241;-79
2023/07/19 04:19:22;;;;;;;1.73;1.00;;;21.40;99.90;;;;;;5080242;28;20230;-80
2023/07/19 04:21:53;;;;;;;2.53;1.10;;;21.20;99.90;;;;;;5080214;28;20203;-79
2023/07/19 04:24:27;;;;;;;0.93;0.70;;;21.10;99.90;;;;;;5088575;28;20218;-81
2023/07/19 04:26:58;;;;;;;1.23;0.90;;;21.00;99.90;;;;;;5084029;28;20301;-79
2023/07/19 04:29:29;;;;;;;1.63;0.83;;;20.90;99.90;;;;;;5089532;28;20214;-80
2023/07/19 04:32:00;;;;;;;1.53;0.80;;;20.80;99.90;;;;;;5091879;28;20287;-81
2023/07/19 04:34:30;;;;;;;0.80;0.70;;;20.70;99.90;;;;;;5093681;28;20215;-81
2023/07/19 04:37:01;;;;;;;2.03;1.17;;;20.60;99.90;;;;;;5093947;28;20299;-82
2023/07/19 04:39:34;;;;;;;2.40;1.43;;;20.60;99.90;;;;;;5087530;28;20199;-80
2023/07/19 04:42:05;;;;;;;1.73;0.93;;;20.50;99.90;;;;;;5097451;28;20245;-81
2023/07/19 04:44:38;;;;;;;1.90;0.90;;;20.40;99.90;;;;;;5094619;28;20198;-79
2023/07/19 04:47:08;;;;;;;2.20;0.83;;;20.30;99.90;;;;;;5095470;28;20209;-80
2023/07/19 04:49:39;;;;;;;3.07;0.97;;;20.20;99.90;;;;;;5094647;28;20206;-80
2023/07/19 04:52:10;;;;;;;0.97;0.80;;;20.10;99.90;;;;;;5092064;28;20574;-79
2023/07/19 04:54:43;;;;;;;2.40;0.77;;;20.10;99.90;;;;;;5092950;28;20231;-79
2023/07/19 04:57:15;;;;;;;3.53;0.90;;;20.00;99.90;;;;;;5083587;28;20400;-80
2023/07/19 04:59:46;;;;;;;2.63;1.00;;;19.90;99.90;;;;;;5092331;28;20199;-80
2023/07/19 05:02:18;;;;;;;2.20;0.80;;;19.80;99.90;;;;;;5078209;28;20230;-80
2023/07/19 05:04:48;;;;;;;1.30;0.90;;;19.70;99.90;;;;;;5080107;28;20214;-80
2023/07/19 05:07:19;;;;;;;1.13;0.70;;;19.60;99.90;;;;;;5093271;28;20234;-79
2023/07/19 05:09:52;;;;;;;1.03;0.63;;;19.60;99.90;;;;;;5092627;28;20593;-81
2023/07/19 05:12:23;;;;;;;1.97;0.90;;;19.60;99.90;;;;;;5085799;28;20208;-80
2023/07/19 05:14:54;;;;;;;3.17;1.70;;;19.50;99.90;;;;;;5073110;28;20240;-80
2023/07/19 05:17:25;;;;;;;1.60;0.87;;;19.40;99.90;;;;;;5072556;28;20215;-81
2023/07/19 05:19:56;;;;;;;1.60;0.80;;;19.30;99.90;;;;;;5072329;28;20670;-79
2023/07/19 05:22:28;;;;;;;2.97;0.90;;;19.20;99.90;;;;;;5092969;28;20223;-79
2023/07/19 05:25:01;;;;;;;2.10;0.90;;;19.20;99.90;;;;;;5088656;28;20228;-79
2023/07/19 05:27:32;;;;;;;1.60;0.90;;;19.10;99.90;;;;;;5077417;28;20278;-80
2023/07/19 05:30:04;;;;;;;2.17;1.00;;;19.00;99.90;;;;;;5080818;28;20289;-80
2023/07/19 05:32:35;;;;;;;1.83;0.70;;;19.00;99.90;;;;;;5083133;28;20195;-78
2023/07/19 05:35:07;;;;;;;2.50;0.73;;;18.90;99.90;;;;;;5090377;28;20240;-80
2023/07/19 05:37:39;;;;;;;2.77;0.90;;;18.90;99.90;;;;;;5085243;28;20203;-80
2023/07/19 05:40:13;;;;;;;2.20;0.90;;;18.80;99.90;;;;;;5092531;28;20281;-79
2023/07/19 05:42:44;;;;;;;1.80;0.90;;;18.70;99.90;;;;;;5091104;28;20199;-80
2023/07/19 05:45:14;;;;;;;1.90;0.80;;;18.60;99.90;;;;;;5091700;28;20199;-81
2023/07/19 05:47:45;;;;;;;2.03;1.20;;;18.50;99.90;;;;;;5079366;28;20209;-81
2023/07/19 05:50:16;;;;;;;2.37;1.10;;;18.40;99.90;;;;;;5092564;28;20684;-80
2023/07/19 05:52:47;;;;;;;2.23;1.00;;;18.40;99.90;;;;;;5091491;28;20206;-80
2023/07/19 05:55:20;;;;;;;1.97;0.87;;;18.30;99.90;;;;;;5092389;28;20233;-80
2023/07/19 05:57:51;;;;;;;1.27;0.80;;;18.30;99.90;;;;;;5092276;28;20672;-80
2023/07/19 06:00:24;;;;;;;1.87;0.90;;;18.20;99.90;;;;;;5092208;28;20572;-80
2023/07/19 06:02:55;;;;;;;3.03;1.20;;;18.20;99.90;;;;;;5088751;28;20273;-80
2023/07/19 06:05:27;;;;;;;2.53;1.20;;;18.10;99.90;;;;;;5088023;28;20290;-81
2023/07/19 06:07:58;;;;;;;2.27;1.23;;;18.10;99.90;;;;;;5092067;28;20210;-80
2023/07/19 06:10:51;;;;;;;1.73;0.97;;;18.00;99.90;;;;;;5091605;28;20207;-79
2023/07/19 06:13:22;;;;;;;1.53;0.60;;;18.00;99.90;;;;;;5092174;28;20206;-80
2023/07/19 06:15:54;;;;;;;1.90;1.07;;;17.90;99.90;;;;;;5091950;28;20529;-80
2023/07/19 06:18:24;;;;;;;2.87;1.00;;;17.90;99.90;;;;;;5091772;28;20670;-80
2023/07/19 06:20:55;;;;;;;2.40;0.80;;;17.80;99.90;;;;;;5081017;28;20207;-83
2023/07/19 06:23:26;;;;;;;3.67;0.70;;;17.80;99.90;;;;;;5091929;28;20989;-80
2023/07/19 06:25:59;;;;;;;2.23;0.90;;;17.70;99.90;;;;;;5091761;28;20591;-79
2023/07/19 06:28:35;;;;;;;5.33;1.07;;;17.70;99.90;;;;;;5091962;28;20622;-80
2023/07/19 06:31:05;;;;;;;2.53;0.90;;;17.60;99.90;;;;;;5090787;28;20286;-80
2023/07/19 06:33:36;;;;;;;2.17;1.00;;;17.70;99.90;;;;;;5091921;28;20252;-80
2023/07/19 06:36:07;;;;;;;1.97;0.90;;;17.60;99.90;;;;;;5091448;28;20322;-80
2023/07/19 06:38:39;;;;;;;3.43;0.90;;;17.60;99.90;;;;;;5081736;28;20290;-80
2023/07/19 06:41:11;;;;;;;1.83;0.73;;;17.50;99.90;;;;;;5090715;28;20285;-80
2023/07/19 06:43:42;;;;;;;1.30;0.90;;;17.50;99.90;;;;;;5091977;28;20206;-79
2023/07/19 06:46:13;;;;;;;2.40;1.00;;;17.50;99.90;;;;;;5091849;28;20206;-79
2023/07/19 06:48:43;;;;;;;2.77;1.27;;;17.40;99.90;;;;;;5091905;28;20210;-80
2023/07/19 06:51:14;;;;;;;3.17;1.00;;;17.40;99.90;;;;;;5090565;28;20199;-80
2023/07/19 06:53:45;;;;;;;2.57;0.87;;;17.30;99.90;;;;;;5090682;28;20199;-79
2023/07/19 06:56:25;;;;;;;2.43;0.90;;;17.30;99.90;;;;;;5084512;28;20230;-81
2023/07/19 06:58:56;;;;;;;1.97;0.80;;;17.30;99.90;;;;;;5092233;28;20217;-79
2023/07/19 07:01:27;;;;;;;1.70;0.70;;;17.20;99.90;;;;;;5090857;28;20199;-80
2023/07/19 07:03:58;;;;;;;1.73;0.90;;;17.20;99.90;;;;;;5072887;28;20205;-80
2023/07/19 07:06:29;;;;;;;3.07;0.87;;;17.10;99.90;;;;;;5071533;28;20294;-80
2023/07/19 07:09:00;;;;;;;2.10;0.90;;;17.10;99.90;;;;;;5071429;28;20245;-80
2023/07/19 07:11:32;;;;;;;1.80;0.63;;;17.10;99.90;;;;;;5070826;28;20218;-80
2023/07/19 07:14:03;;;;;;;4.30;1.13;;;17.10;99.90;;;;;;5089826;28;20310;-80
2023/07/19 07:16:34;;;;;;;3.10;1.00;;;17.00;99.90;;;;;;5091485;28;20234;-80
2023/07/19 07:19:10;;;;;;;3.27;0.97;;;16.90;99.90;;;;;;5091535;28;20203;-81
2023/07/19 07:21:41;;;;;;;1.90;0.90;;;17.00;99.90;;;;;;5090351;28;20623;-81
2023/07/19 07:24:13;;;;;;;4.23;1.23;;;16.90;99.90;;;;;;5093519;28;20672;-80
2023/07/19 07:26:45;;;;;;;1.50;0.87;;;16.90;99.90;;;;;;5095235;28;20233;-80
2023/07/19 07:29:16;;;;;;;2.03;0.80;;;16.90;99.90;;;;;;5085087;28;20229;-80
2023/07/19 07:31:46;;;;;;;4.20;0.90;;;16.90;99.90;;;;;;5094209;28;20567;-78
2023/07/19 07:34:17;;;;;;;1.83;0.90;;;16.80;99.90;;;;;;5094942;28;20285;-80
2023/07/19 07:36:51;;;;;;;1.43;0.73;;;16.70;99.90;;;;;;5094970;28;20256;-80
2023/07/19 07:39:22;;;;;;;4.27;1.27;;;16.70;99.90;;;;;;5094268;28;20204;-81
2023/07/19 07:41:55;;;;;;;2.40;1.17;;;16.70;99.90;;;;;;5093230;28;20227;-80
2023/07/19 07:44:26;;;;;;;2.27;0.83;;;16.70;99.90;;;;;;5094677;28;20234;-80
2023/07/19 07:46:57;;;;;;;2.57;1.10;;;16.60;99.90;;;;;;5084616;28;20215;-80
2023/07/19 07:49:28;;;;;;;2.43;0.90;;;16.60;99.90;;;;;;5093485;28;20242;-81
2023/07/19 07:51:59;;;;;;;1.73;0.97;;;16.50;99.90;;;;;;5091921;28;20191;-80
2023/07/19 07:54:30;;;;;;;3.83;1.10;;;16.50;99.90;;;;;;5094564;28;20609;-81
2023/07/19 07:57:02;;;;;;;2.30;0.90;;;16.50;99.90;;;;;;5091848;28;20310;-79
2023/07/19 07:59:33;;;;;;;3.70;1.33;;;16.40;99.90;;;;;;5085190;28;20639;-80
2023/07/19 08:02:04;;;;;;;2.20;0.80;;;16.40;99.90;;;;;;5089087;28;20207;-80
2023/07/19 08:04:35;;;;;;;5.47;1.73;;;16.40;99.90;;;;;;5087748;28;20591;-79
2023/07/19 08:07:07;;;;;;;2.73;1.00;;;16.40;99.90;;;;;;5075740;28;20200;-79
2023/07/19 08:09:37;;;;;;;3.00;1.20;;;16.30;99.90;;;;;;5072036;28;20844;-79
2023/07/19 08:12:11;;;;;;;3.37;1.03;;;16.30;99.90;;;;;;5083651;28;20669;-79
2023/07/19 08:14:42;;;;;;;2.80;1.03;;;16.30;99.90;;;;;;5092672;28;20242;-79
2023/07/19 08:17:16;;;;;;;3.17;1.10;;;16.20;99.90;;;;;;5092243;28;20261;-79
2023/07/19 08:19:47;;;;;;;1.23;0.87;;;16.30;99.90;;;;;;5083488;28;20576;-80
2023/07/19 08:22:28;;;;;;;1.70;0.90;;;16.30;99.90;;;;;;5072939;28;20674;-79
2023/07/19 08:24:59;;;;;;;6.33;1.00;;;16.20;99.90;;;;;;5091885;28;20735;-80
2023/07/19 08:27:52;;;;;;;4.17;1.20;;;16.10;99.90;;;;;;5093992;28;20264;-80
2023/07/19 08:30:23;;;;;;;3.57;1.10;;;16.10;99.90;;;;;;5094073;28;20203;-79
2023/07/19 08:32:54;;;;;;;3.87;1.47;;;16.10;99.90;;;;;;5093036;28;20218;-79
2023/07/19 08:35:25;;;;;;;3.17;1.30;;;16.00;99.90;;;;;;5093102;28;20211;-79
2023/07/19 08:37:56;;;;;;;2.80;1.30;;;16.00;99.90;;;;;;5074070;28;20207;-79
2023/07/19 08:40:32;;;;;;;3.33;1.47;;;16.00;99.90;;;;;;5073535;28;20210;-79
2023/07/19 08:43:07;;;;;;;3.63;1.23;;;15.90;99.90;;;;;;5072382;28;20203;-79
2023/07/19 08:45:38;;;;;;;3.37;1.47;;;15.80;99.90;;;;;;5073389;28;20296;-80
2023/07/19 08:48:10;;;;;;;2.73;1.33;;;15.80;99.90;;;;;;5072934;28;20695;-80
2023/07/19 08:50:47;;;;;;;4.63;1.57;;;15.80;99.90;;;;;;5073028;28;20256;-82
2023/07/19 08:53:18;;;;;;;3.83;1.27;;;15.80;99.90;;;;;;5078752;28;20721;-82
2023/07/19 08:55:52;;;;;;;3.47;1.17;;;15.80;99.90;;;;;;5093595;28;20235;-80
2023/07/19 08:58:25;;;;;;;3.00;1.27;;;15.80;99.90;;;;;;5093177;28;20206;-79
2023/07/19 09:00:56;;;;;;;3.57;1.20;;;15.80;99.90;;;;;;5092036;28;20289;-81
2023/07/19 09:03:27;;;;;;;4.33;1.30;;;15.70;99.90;;;;;;5092973;28;20241;-80
2023/07/19 09:05:58;;;;;;;3.53;1.30;;;15.70;99.90;;;;;;5093394;28;20724;-80
2023/07/19 09:08:38;;;;;;;5.10;1.27;;;15.60;99.90;;;;;;5094333;28;20548;-81
2023/07/19 09:11:09;;;;;;;1.73;0.93;;;15.50;99.90;;;;;;5080749;28;20243;-81
2023/07/19 09:13:42;;;;;;;3.07;1.37;;;15.40;99.90;;;;;;5073644;28;20203;-80
2023/07/19 09:16:13;;;;;;;4.47;1.30;;;15.40;99.90;;;;;;5072872;28;20237;-80
2023/07/19 09:18:46;;;;;;;4.27;1.40;;;15.30;99.90;;;;;;5072727;28;20214;-80
2023/07/19 09:21:17;;;;;;;4.13;1.40;;;15.30;99.90;;;;;;5073214;28;20207;-79
2023/07/19 09:23:49;;;;;;;3.77;1.33;;;15.20;99.90;;;;;;5086546;28;20718;-78
2023/07/19 09:26:20;;;;;;;2.73;1.00;;;15.20;99.90;;;;;;5081409;28;20547;-78
2023/07/19 09:28:53;;;;;;;5.20;1.30;;;15.20;99.90;;;;;;5091150;28;20195;-79
2023/07/19 09:31:25;;;;;;;4.17;1.27;;;15.20;99.90;;;;;;5090848;28;20207;-79
2023/07/19 09:33:57;;;;;;;2.40;1.10;;;15.20;99.90;;;;;;5077019;28;20214;-80
2023/07/19 09:36:31;;;;;;;5.00;1.10;;;15.20;99.90;;;;;;5078032;28;20255;-79
2023/07/19 09:39:02;;;;;;;2.73;1.27;;;15.20;99.90;;;;;;5077787;28;20195;-78
2023/07/19 09:41:34;;;;;;;5.03;1.60;;;15.20;99.90;;;;;;5073339;28;20725;-80
2023/07/19 09:44:09;;;;;;;1.90;1.30;;;15.20;99.90;;;;;;5076134;28;20743;-79
2023/07/19 09:46:40;;;;;;;3.53;1.40;;;15.10;99.90;;;;;;5080576;28;20293;-79
2023/07/19 09:49:11;;;;;;;1.20;1.10;;;15.10;99.90;;;;;;5077162;28;20214;-81
2023/07/19 09:51:43;;;;;;;3.77;1.37;;;15.20;99.90;;;;;;5076480;28;20199;-79
2023/07/19 09:54:15;;;;;;;4.63;1.20;;;15.10;99.90;;;;;;5076394;28;20261;-79
2023/07/19 09:56:47;;;;;;;1.70;1.10;;;15.10;99.90;;;;;;5074298;28;20314;-80
2023/07/19 09:59:24;;;;;;;3.83;1.20;;;15.10;99.90;;;;;;5080811;28;20221;-80
2023/07/19 10:01:55;;;;;;;8.47;1.60;;;15.10;99.90;;;;;;5083629;28;20199;-80
2023/07/19 10:04:27;;;;;;;1.90;1.30;;;15.20;99.90;;;;;;5078890;28;20230;-80
2023/07/19 10:07:12;;;;;;;4.03;1.30;;;15.10;99.90;;;;;;5073143;28;20298;-79
2023/07/19 10:09:44;;;;;;;2.53;1.20;;;15.10;99.90;;;;;;5086913;28;20658;-80
2023/07/19 10:12:25;;;;;;;3.37;1.10;;;15.00;99.90;;;;;;5078522;28;20221;-80
2023/07/19 10:15:01;;;;;;;3.37;1.23;;;15.00;99.90;;;;;;5091819;28;20328;-80
2023/07/19 10:17:40;;;;;;;4.50;1.50;;;15.00;99.90;;;;;;5091122;28;20248;-79
2023/07/19 10:20:14;;;;;;;5.03;1.47;;;14.90;99.90;;;;;;5088994;28;20211;-80
2023/07/19 10:22:50;;;;;;;3.37;1.40;;;15.00;99.90;;;;;;5084412;28;20215;-79
2023/07/19 10:25:24;;;;;;;3.17;1.20;;;14.90;99.90;;;;;;5072082;28;20286;-80
2023/07/19 10:28:00;;;;;;;4.10;1.30;;;14.90;99.90;;;;;;5073598;28;20211;-80
2023/07/19 10:30:52;;;;;;;2.67;1.23;;;14.90;99.90;;;;;;5088729;28;20210;-80
2023/07/19 10:33:26;;;;;;;5.57;1.23;;;14.80;99.90;;;;;;5080196;28;20661;-79
2023/07/19 10:35:59;;;;;;;3.07;1.10;;;14.80;99.90;;;;;;5091271;28;20242;-79
2023/07/19 10:38:30;;;;;;;3.97;1.43;;;14.80;99.90;;;;;;5087612;28;20278;-80
2023/07/19 10:41:02;;;;;;;3.17;1.17;;;14.70;99.90;;;;;;5072648;28;20199;-78
2023/07/19 10:43:35;;;;;;;4.10;1.30;;;14.70;99.90;;;;;;5084776;28;20203;-78
2023/07/19 10:46:23;;;;;;;2.67;1.23;;;14.70;99.90;;;;;;5091037;28;20199;-80
2023/07/19 10:48:54;;;;;;;3.07;1.40;;;14.70;99.90;;;;;;5091685;28;20202;-80
2023/07/19 10:51:26;;;;;;;3.17;1.30;;;14.70;99.90;;;;;;5090513;28;20207;-80
2023/07/19 10:53:57;;;;;;;2.37;1.10;;;14.70;99.90;;;;;;5091604;28;20206;-79
2023/07/19 10:56:29;;;;;;;2.50;1.10;;;14.70;99.90;;;;;;5091540;28;20203;-79
2023/07/19 10:59:03;;;;;;;3.20;1.30;;;14.70;99.90;;;;;;5095519;28;20203;-79
2023/07/19 11:01:35;;;;;;;2.80;1.00;;;14.70;99.90;;;;;;5094599;28;20203;-80
2023/07/19 11:04:07;;;;;;;3.10;1.20;;;14.60;99.90;;;;;;5095929;28;20192;-79
2023/07/19 11:06:39;;;;;;;1.93;1.00;;;14.60;99.90;;;;;;5095575;28;20248;-80
2023/07/19 11:09:11;;;;;;;2.57;1.10;;;14.50;99.90;;;;;;5091100;28;20222;-80
2023/07/19 11:11:42;;;;;;;3.27;1.20;;;14.50;99.90;;;;;;5074504;28;20216;-80
2023/07/19 11:14:29;;;;;;;3.27;1.30;;;14.50;99.90;;;;;;5075420;28;20214;-78
2023/07/19 11:17:02;;;;;;;4.23;1.20;;;14.50;99.90;;;;;;5075807;28;20227;-80
2023/07/19 11:19:37;;;;;;;3.37;1.50;;;14.40;99.90;;;;;;5077002;28;20681;-79
2023/07/19 11:22:10;;;;;;;3.67;1.40;;;14.40;99.90;;;;;;5078172;28;20215;-80
2023/07/19 11:24:42;;;;;;;3.43;1.40;;;14.50;99.90;;;;;;5078905;28;20229;-79
2023/07/19 11:27:13;;;;;;;2.63;1.13;;;14.50;99.90;;;;;;5077030;28;20262;-79
2023/07/19 11:29:46;;;;;;;2.20;1.10;;;14.50;99.90;;;;;;5074974;28;20203;-80
2023/07/19 11:32:23;;;;;;;2.40;1.33;;;14.50;99.90;;;;;;5073718;28;20218;-80
2023/07/19 11:34:54;;;;;;;3.00;1.20;;;14.50;99.90;;;;;;5075038;28;20203;-80
2023/07/19 11:37:27;;;;;;;3.67;1.30;;;14.50;99.90;;;;;;5074930;28;20257;-78
2023/07/19 11:40:05;;;;;;;4.37;1.07;;;14.50;99.90;;;;;;5074759;28;20241;-79
2023/07/19 11:42:44;;;;;;;2.67;1.30;;;14.50;99.90;;;;;;5092883;28;20198;-81
2023/07/19 11:45:17;;;;;;;4.27;1.23;;;14.40;99.90;;;;;;5074683;28;20231;-79
2023/07/19 11:47:51;;;;;;;2.57;1.20;;;14.40;99.90;;;;;;5074441;28;20204;-80
2023/07/19 11:50:23;;;;;;;3.73;1.40;;;14.40;99.90;;;;;;5074673;28;20211;-79
2023/07/19 11:52:57;;;;;;;4.50;1.43;;;14.30;99.90;;;;;;5073386;28;20298;-79
2023/07/19 11:55:28;;;;;;;3.73;1.20;;;14.20;99.90;;;;;;5093058;28;20661;-79
2023/07/19 11:58:02;;;;;;;1.93;1.20;;;14.20;99.90;;;;;;5084224;28;20222;-79
2023/07/19 12:00:35;;;;;;;3.67;1.20;;;14.20;99.90;;;;;;5093855;28;20579;-78
2023/07/19 12:03:08;;;;;;;3.57;1.33;;;14.10;99.90;;;;;;5091755;28;20211;-81
2023/07/19 12:05:40;;;;;;;2.13;1.40;;;14.10;99.90;;;;;;5086863;28;20198;-80
2023/07/19 12:08:10;;;;;;;3.17;1.40;;;14.00;99.90;;;;;;5093729;28;20203;-79
2023/07/19 12:10:42;;;;;;;5.90;1.50;;;14.00;99.90;;;;;;5092648;28;20210;-79
2023/07/19 12:13:12;;;;;;;3.43;1.27;;;14.00;99.90;;;;;;5084942;28;20243;-80
2023/07/19 12:15:43;;;;;;;4.53;1.10;;;14.00;99.90;;;;;;5076782;28;20207;-79
2023/07/19 12:18:16;;;;;;;4.10;1.37;;;14.10;99.90;;;;;;5084919;28;20227;-79
2023/07/19 12:20:47;;;;;;;2.30;1.13;;;14.10;99.90;;;;;;5074016;28;20211;-80
2023/07/19 12:23:18;;;;;;;4.57;1.20;;;14.00;99.90;;;;;;5079369;28;20544;-80
2023/07/19 12:26:02;;;;;;;6.53;1.17;;;14.10;99.90;;;;;;5074959;28;20207;-79
2023/07/19 12:28:32;;;;;;;2.80;1.10;;;14.00;99.90;;;;;;5093402;28;20203;-79
2023/07/19 12:31:04;;;;;;;3.53;1.30;;;14.00;99.90;;;;;;5092225;28;20222;-80
2023/07/19 12:33:37;;;;;;;1.97;0.90;;;14.00;99.90;;;;;;5077075;28;20196;-78
2023/07/19 12:36:09;;;;;;;2.27;1.30;;;14.10;99.90;;;;;;5091451;28;20276;-79
2023/07/19 12:38:40;;;;;;;3.10;1.10;;;14.10;99.90;;;;;;5092138;28;20238;-79
2023/07/19 12:41:11;;;;;;;3.63;1.20;;;14.10;99.90;;;;;;5085873;28;20199;-80
2023/07/19 12:43:42;;;;;;;3.23;1.30;;;14.10;99.90;;;;;;5084851;28;20199;-79
2023/07/19 12:46:13;;;;;;;5.07;1.30;;;14.10;99.90;;;;;;5092697;28;20234;-79
2023/07/19 12:48:48;;;;;;;3.23;1.20;;;14.10;99.90;;;;;;5086231;28;20319;-80
2023/07/19 12:51:19;;;;;;;2.73;1.10;;;14.10;99.90;;;;;;5081883;28;20207;-78
2023/07/19 12:53:50;;;;;;;6.10;1.30;;;14.10;99.90;;;;;;5093493;28;20217;-79
2023/07/19 12:56:21;;;;;;;2.00;1.37;;;14.20;99.90;;;;;;5093592;28;20206;-79
2023/07/19 12:58:53;;;;;;;2.30;1.10;;;14.10;99.90;;;;;;5093208;28;20260;-78
2023/07/19 13:01:24;;;;;;;3.73;1.30;;;14.20;99.90;;;;;;5092474;28;20234;-80
2023/07/19 13:03:57;;;;;;;3.27;1.30;;;14.20;99.90;;;;;;5093418;28;20298;-80
2023/07/19 13:06:28;;;;;;;2.93;1.00;;;14.20;99.90;;;;;;5093416;28;20202;-80
2023/07/19 13:08:59;;;;;;;3.50;1.27;;;14.20;99.90;;;;;;5081531;28;20215;-81
2023/07/19 13:11:30;;;;;;;4.73;1.33;;;14.20;99.90;;;;;;5071996;28;20285;-79
2023/07/19 13:14:01;;;;;;;1.93;1.03;;;14.20;99.90;;;;;;5072789;28;20204;-80